Bellaire, Kansas
Current Conditions -  °F | °C
As of 8:55 PM on Tuesday 21 Oct 2014 (Local Time) from KCNK Reporting Station
Clear Clear  
Wind Chill: 64°   Ceiling: Unl
Heat Index: 64°   Visibility: 10mi
Dew Point: 54°   Wind: 9mph
Humidity: 70%   Direction: 140°SE
Pressure: 30"   Gusts: NA
Location:  39.8283°N, 98.5606°W
Report Text: KCNK 220155Z AUTO 14008KT 10SM CLR 18/12 A3000 RMK AO2 SLP157 T01780122
Loading
Personal Weather Stations






























Interactive Weather Map
Tropical Storm Tracking
New forecast layout! Learn more

10-Day Weather Forecast

Advertisements
Track Severe Weather on mobile